createdAt,value
2023-05-01T00:00:00.823Z,101993.75
2023-05-01T00:02:27.482Z,102000.06
2023-05-01T00:04:54.207Z,101999.06
2023-05-01T00:07:20.949Z,101989.81
2023-05-01T00:09:47.930Z,102002.97
2023-05-01T00:12:14.859Z,102000.41
2023-05-01T00:14:42.215Z,101983.91
2023-05-01T00:17:09.223Z,101973.53
2023-05-01T00:19:36.242Z,101982.34
2023-05-01T00:22:03.715Z,101982.25
2023-05-01T00:24:35.814Z,101977.88
2023-05-01T00:27:03.390Z,101963.03
2023-05-01T00:29:30.396Z,101964.00
2023-05-01T00:31:57.709Z,101961.53
2023-05-01T00:34:25.335Z,101963.31
2023-05-01T00:36:52.455Z,101959.00
2023-05-01T00:39:21.498Z,101954.72
2023-05-01T00:42:02.041Z,101947.84
2023-05-01T00:44:28.664Z,101940.03
2023-05-01T00:46:56.682Z,101940.88
2023-05-01T00:49:23.248Z,101941.94
2023-05-01T00:51:53.418Z,101931.66
2023-05-01T00:54:21.116Z,101929.91
2023-05-01T00:56:48.079Z,101931.78
2023-05-01T00:59:15.004Z,101931.84
2023-05-01T01:01:42.876Z,101929.34
2023-05-01T01:04:15.737Z,101914.91
2023-05-01T01:07:08.833Z,101914.75
2023-05-01T01:10:06.716Z,101919.25
2023-05-01T01:12:55.000Z,101913.41
2023-05-01T01:15:48.747Z,101901.25
2023-05-01T01:18:40.629Z,101910.81
2023-05-01T01:21:28.149Z,101905.00
2023-05-01T01:24:01.359Z,101897.09
2023-05-01T01:26:39.109Z,101896.50
2023-05-01T01:29:23.252Z,101885.38
2023-05-01T01:32:34.433Z,101892.28
2023-05-01T01:35:08.061Z,101872.97
2023-05-01T01:38:21.432Z,101878.34
2023-05-01T01:41:13.079Z,101871.44
2023-05-01T01:44:06.917Z,101869.69
2023-05-01T01:46:42.802Z,101849.00
2023-05-01T01:49:20.885Z,101851.66
2023-05-01T01:51:57.859Z,101852.38
2023-05-01T01:54:37.661Z,101842.66
2023-05-01T01:57:09.693Z,101845.13
2023-05-01T01:59:36.987Z,101833.16
2023-05-01T02:02:05.105Z,101835.81
2023-05-01T02:04:32.961Z,101835.91
2023-05-01T02:07:01.448Z,101834.03
2023-05-01T02:09:30.057Z,101821.03
2023-05-01T02:11:57.624Z,101830.53
2023-05-01T02:14:26.869Z,101823.59
2023-05-01T02:16:54.092Z,101819.38
2023-05-01T02:19:21.579Z,101820.97
2023-05-01T02:21:49.933Z,101808.72
2023-05-01T02:24:20.314Z,101813.84
2023-05-01T02:26:52.330Z,101813.09
2023-05-01T02:29:25.533Z,101807.94
2023-05-01T02:31:52.461Z,101803.72
2023-05-01T02:34:21.234Z,101796.69
2023-05-01T02:36:52.029Z,101804.50
2023-05-01T02:39:18.931Z,101789.94
2023-05-01T02:41:46.741Z,101793.94
2023-05-01T02:44:16.077Z,101787.94
2023-05-01T02:46:45.957Z,101793.84
2023-05-01T02:49:17.041Z,101796.31
2023-05-01T02:51:46.025Z,101784.97
2023-05-01T02:54:13.083Z,101788.91
2023-05-01T02:56:39.726Z,101778.34
2023-05-01T02:59:06.556Z,101773.91
2023-05-01T03:01:33.247Z,101783.41
2023-05-01T03:03:59.981Z,101778.03
2023-05-01T03:06:29.179Z,101777.97
2023-05-01T03:08:55.683Z,101783.75
2023-05-01T03:11:22.389Z,101764.63
2023-05-01T03:13:49.259Z,101770.34
2023-05-01T03:16:15.986Z,101766.00
2023-05-01T03:18:43.008Z,101766.63
2023-05-01T03:21:09.875Z,101762.78
2023-05-01T03:23:38.444Z,101753.19
2023-05-01T03:26:04.962Z,101742.63
2023-05-01T03:28:31.582Z,101749.41
2023-05-01T03:30:58.066Z,101736.06
2023-05-01T03:33:24.612Z,101749.00
2023-05-01T03:36:04.062Z,101749.00
2023-05-01T03:38:31.660Z,101737.56
2023-05-01T03:40:59.219Z,101737.19
2023-05-01T03:43:26.049Z,101736.34
2023-05-01T03:45:52.706Z,101732.63
2023-05-01T03:48:20.270Z,101723.91
2023-05-01T03:50:47.059Z,101734.25
2023-05-01T03:53:14.129Z,101732.38
2023-05-01T03:55:42.033Z,101723.50
2023-05-01T03:58:08.634Z,101729.44
2023-05-01T04:00:35.302Z,101726.56
2023-05-01T04:03:02.415Z,101727.28
2023-05-01T04:05:29.703Z,101715.84
2023-05-01T04:07:56.918Z,101711.56
2023-05-01T04:10:23.651Z,101703.75
2023-05-01T04:12:50.391Z,101705.44
2023-05-01T04:15:17.055Z,101714.84
2023-05-01T04:17:43.878Z,101711.44
2023-05-01T04:20:11.184Z,101713.78
2023-05-01T04:22:38.087Z,101709.34
2023-05-01T04:25:04.854Z,101710.97
2023-05-01T04:27:31.786Z,101706.63
2023-05-01T04:29:58.742Z,101707.53
2023-05-01T04:32:27.142Z,101707.41
2023-05-01T04:34:53.839Z,101701.94
2023-05-01T04:37:20.397Z,101695.81
2023-05-01T04:39:46.912Z,101700.94
2023-05-01T04:42:13.688Z,101692.84
2023-05-01T04:44:40.335Z,101703.19
2023-05-01T04:47:07.224Z,101693.53
2023-05-01T04:49:34.124Z,101702.94
2023-05-01T04:52:00.694Z,101705.66
2023-05-01T04:54:28.031Z,101709.72
2023-05-01T04:56:54.537Z,101715.63
2023-05-01T04:59:21.121Z,101715.47
2023-05-01T05:01:47.790Z,101714.69
2023-05-01T05:04:14.451Z,101715.38
2023-05-01T05:06:41.196Z,101713.38
2023-05-01T05:09:07.776Z,101702.72
2023-05-01T05:11:34.501Z,101711.09
2023-05-01T05:14:01.183Z,101704.03
2023-05-01T05:16:27.908Z,101697.00
2023-05-01T05:18:56.623Z,101703.44
2023-05-01T05:21:23.526Z,101700.81
2023-05-01T05:23:50.815Z,101707.31
2023-05-01T05:26:17.434Z,101708.88
2023-05-01T05:28:44.078Z,101702.38
2023-05-01T05:31:10.768Z,101696.94
2023-05-01T05:33:37.583Z,101695.09
2023-05-01T05:36:04.271Z,101706.81
2023-05-01T05:38:31.324Z,101703.81
2023-05-01T05:40:59.522Z,101698.19
2023-05-01T05:43:27.965Z,101693.44
2023-05-01T05:46:01.053Z,101698.47
2023-05-01T05:48:27.833Z,101691.19
2023-05-01T05:50:54.524Z,101695.28
2023-05-01T05:53:22.466Z,101687.06
2023-05-01T05:55:50.943Z,101688.88
2023-05-01T05:58:20.070Z,101691.19
2023-05-01T06:00:50.507Z,101690.84
2023-05-01T06:03:17.196Z,101686.31
2023-05-01T06:05:44.645Z,101685.28
2023-05-01T06:08:11.563Z,101679.81
2023-05-01T06:10:39.691Z,101688.84
2023-05-01T06:13:14.440Z,101695.59
2023-05-01T06:15:41.598Z,101692.88
2023-05-01T06:18:08.642Z,101686.16
2023-05-01T06:20:35.520Z,101677.09
2023-05-01T06:23:02.039Z,101680.03
2023-05-01T06:25:28.578Z,101676.09
2023-05-01T06:27:55.196Z,101678.09
2023-05-01T06:30:21.976Z,101679.19
2023-05-01T06:32:48.992Z,101675.75
2023-05-01T06:35:15.628Z,101674.94
2023-05-01T06:37:42.101Z,101672.47
2023-05-01T06:40:09.751Z,101684.84
2023-05-01T06:42:37.676Z,101676.94
2023-05-01T06:45:04.805Z,101676.66
2023-05-01T06:47:31.467Z,101670.88
2023-05-01T06:49:58.211Z,101663.66
2023-05-01T06:52:25.484Z,101673.69
2023-05-01T06:54:52.014Z,101679.75
2023-05-01T06:57:21.742Z,101681.56
2023-05-01T06:59:48.355Z,101672.00
2023-05-01T07:02:14.944Z,101674.28
2023-05-01T07:04:44.363Z,101677.94
2023-05-01T07:07:11.656Z,101670.41
2023-05-01T07:09:38.814Z,101671.22
2023-05-01T07:12:06.903Z,101657.84
2023-05-01T07:14:35.747Z,101657.34
2023-05-01T07:17:02.828Z,101662.47
2023-05-01T07:19:29.485Z,101670.06
2023-05-01T07:21:55.968Z,101667.41
2023-05-01T07:24:22.915Z,101671.31
2023-05-01T07:26:49.415Z,101656.28
2023-05-01T07:29:16.652Z,101659.66
2023-05-01T07:31:44.057Z,101659.28
2023-05-01T07:34:11.488Z,101661.97
2023-05-01T07:36:38.445Z,101665.88
2023-05-01T07:39:05.074Z,101664.44
2023-05-01T07:41:31.741Z,101664.56
2023-05-01T07:44:01.685Z,101670.75
2023-05-01T07:46:28.406Z,101664.47
2023-05-01T07:48:55.105Z,101662.88
2023-05-01T07:51:21.702Z,101667.03
2023-05-01T07:53:48.735Z,101664.34
2023-05-01T07:56:15.538Z,101662.78
2023-05-01T07:58:42.709Z,101668.53
2023-05-01T08:01:09.400Z,101666.91
2023-05-01T08:03:36.197Z,101661.25
2023-05-01T08:06:02.902Z,101662.66
2023-05-01T08:08:29.514Z,101665.72
2023-05-01T08:10:56.399Z,101666.72
2023-05-01T08:13:23.159Z,101671.06
2023-05-01T08:15:49.962Z,101662.31
2023-05-01T08:18:20.496Z,101662.78
2023-05-01T08:20:48.322Z,101658.69
2023-05-01T08:23:19.075Z,101664.88
2023-05-01T08:25:51.271Z,101667.44
2023-05-01T08:28:21.534Z,101659.22
2023-05-01T08:30:52.638Z,101664.84
2023-05-01T08:33:19.499Z,101661.88
2023-05-01T08:35:46.062Z,101661.34
2023-05-01T08:38:12.873Z,101664.09
2023-05-01T08:40:43.953Z,101672.06
2023-05-01T08:43:10.673Z,101672.31
2023-05-01T08:45:38.277Z,101673.97
2023-05-01T08:48:10.340Z,101671.09
2023-05-01T08:50:39.307Z,101669.50
2023-05-01T08:53:06.917Z,101667.16
2023-05-01T08:55:36.597Z,101654.69
2023-05-01T08:58:05.334Z,101667.75
2023-05-01T09:00:35.678Z,101670.94
2023-05-01T09:03:04.190Z,101671.22
2023-05-01T09:05:32.870Z,101672.13
2023-05-01T09:07:59.715Z,101672.94
2023-05-01T09:10:27.418Z,101672.25
2023-05-01T09:13:03.217Z,101659.59
2023-05-01T09:15:30.790Z,101667.44
2023-05-01T09:18:02.926Z,101662.56
2023-05-01T09:20:31.738Z,101660.94
2023-05-01T09:22:58.658Z,101666.09
2023-05-01T09:25:25.500Z,101665.28
2023-05-01T09:27:52.512Z,101672.09
2023-05-01T09:30:36.515Z,101672.97
2023-05-01T09:33:07.115Z,101673.47
2023-05-01T09:35:49.358Z,101677.00
2023-05-01T09:38:20.920Z,101680.50
2023-05-01T09:40:48.093Z,101685.03
2023-05-01T09:43:24.518Z,101673.56
2023-05-01T09:46:12.084Z,101680.59
2023-05-01T09:48:39.088Z,101675.47
2023-05-01T09:51:22.135Z,101673.44
2023-05-01T09:53:49.300Z,101681.16
2023-05-01T09:56:16.011Z,101683.25
2023-05-01T09:58:42.634Z,101676.78
2023-05-01T10:01:09.534Z,101680.31
2023-05-01T10:03:36.325Z,101682.69
2023-05-01T10:06:04.335Z,101669.50
2023-05-01T10:08:50.343Z,101671.78
2023-05-01T10:11:17.206Z,101665.81
2023-05-01T10:13:43.846Z,101667.53
2023-05-01T10:16:29.012Z,101660.63
2023-05-01T10:19:00.288Z,101666.28
2023-05-01T10:21:27.993Z,101675.53
2023-05-01T10:23:55.664Z,101677.88
2023-05-01T10:26:22.249Z,101675.50
2023-05-01T10:28:49.876Z,101676.88
2023-05-01T10:31:17.102Z,101669.03
2023-05-01T10:33:44.760Z,101677.69
2023-05-01T10:36:38.044Z,101683.53
2023-05-01T10:39:36.171Z,101688.59
2023-05-01T10:42:06.950Z,101691.91
2023-05-01T10:44:35.110Z,101689.53
2023-05-01T10:47:35.011Z,101679.75
2023-05-01T10:50:12.263Z,101689.31
2023-05-01T10:53:09.866Z,101687.63
2023-05-01T10:55:37.994Z,101688.19
2023-05-01T10:58:04.994Z,101685.38
2023-05-01T11:00:34.061Z,101686.09
2023-05-01T11:03:34.300Z,101689.63
2023-05-01T11:06:01.178Z,101696.84
2023-05-01T11:08:32.559Z,101687.94
2023-05-01T11:11:21.967Z,101690.47
2023-05-01T11:14:01.653Z,101691.22
2023-05-01T11:16:37.839Z,101694.16
2023-05-01T11:19:09.964Z,101679.31
2023-05-01T11:21:38.838Z,101698.13
2023-05-01T11:24:06.769Z,101696.00
2023-05-01T11:26:38.337Z,101693.03
2023-05-01T11:29:05.776Z,101691.91
2023-05-01T11:31:32.852Z,101678.31
2023-05-01T11:34:00.325Z,101692.03
2023-05-01T11:36:28.410Z,101684.84
2023-05-01T11:39:00.049Z,101691.06
2023-05-01T11:41:29.654Z,101683.53
2023-05-01T11:43:58.399Z,101686.91
2023-05-01T11:46:25.739Z,101689.78
2023-05-01T11:48:52.318Z,101675.75
2023-05-01T11:51:19.152Z,101677.47
2023-05-01T11:54:07.074Z,101680.38
2023-05-01T11:56:34.989Z,101684.94
2023-05-01T11:59:18.964Z,101685.41
2023-05-01T12:01:47.036Z,101684.66
2023-05-01T12:04:23.261Z,101675.97
2023-05-01T12:06:50.200Z,101676.34
2023-05-01T12:12:07.746Z,101682.88
2023-05-01T12:14:34.389Z,101684.13
2023-05-01T12:17:03.282Z,101680.19
2023-05-01T12:19:29.911Z,101682.59
2023-05-01T12:22:07.505Z,101687.47
2023-05-01T12:24:34.229Z,101681.78
2023-05-01T12:27:03.553Z,101686.13
2023-05-01T12:29:41.176Z,101691.47
2023-05-01T12:32:08.599Z,101698.59
2023-05-01T12:34:35.311Z,101699.31
2023-05-01T12:37:03.540Z,101705.03
2023-05-01T12:39:38.574Z,101705.34
2023-05-01T12:42:13.124Z,101702.06
2023-05-01T12:44:39.945Z,101694.19
2023-05-01T12:47:08.787Z,101707.44
2023-05-01T12:49:40.577Z,101712.50
2023-05-01T12:52:09.105Z,101714.97
2023-05-01T12:54:38.590Z,101707.47
2023-05-01T12:57:10.329Z,101706.88
2023-05-01T12:59:40.026Z,101703.44
2023-05-01T13:02:10.798Z,101702.06
2023-05-01T13:04:37.567Z,101700.78
2023-05-01T13:07:12.335Z,101700.75
2023-05-01T13:09:39.361Z,101703.09
2023-05-01T13:12:06.781Z,101701.09
2023-05-01T13:14:41.535Z,101697.41
2023-05-01T13:17:11.965Z,101700.44
2023-05-01T13:19:39.426Z,101696.56
2023-05-01T13:22:06.593Z,101695.44
2023-05-01T13:24:37.293Z,101696.69
2023-05-01T13:27:05.663Z,101692.88
2023-05-01T13:29:33.005Z,101696.69
2023-05-01T13:31:59.802Z,101699.34
2023-05-01T13:34:30.616Z,101698.97
2023-05-01T13:36:58.365Z,101703.09
2023-05-01T13:39:25.338Z,101703.50
2023-05-01T13:41:52.849Z,101712.25
2023-05-01T13:44:20.940Z,101705.88
2023-05-01T13:46:48.291Z,101702.00
2023-05-01T13:49:17.692Z,101710.88
2023-05-01T13:51:46.557Z,101702.19
2023-05-01T13:54:14.128Z,101710.66
2023-05-01T13:56:41.279Z,101711.25
2023-05-01T13:59:09.226Z,101709.41
2023-05-01T14:01:45.943Z,101707.16
2023-05-01T14:04:18.171Z,101708.91
2023-05-01T14:06:46.970Z,101708.25
2023-05-01T14:09:17.304Z,101698.44
2023-05-01T14:11:48.172Z,101704.06
2023-05-01T14:14:16.203Z,101703.94
2023-05-01T14:16:46.497Z,101706.56
2023-05-01T14:19:17.380Z,101702.47
2023-05-01T14:21:44.475Z,101707.59
2023-05-01T14:24:11.275Z,101705.22
2023-05-01T14:26:43.735Z,101702.47
2023-05-01T14:29:25.820Z,101699.09
2023-05-01T14:31:52.778Z,101689.06
2023-05-01T14:34:20.334Z,101685.94
2023-05-01T14:36:47.348Z,101683.06
2023-05-01T14:39:15.886Z,101692.91
2023-05-01T14:41:45.547Z,101688.81
2023-05-01T14:44:15.737Z,101693.44
2023-05-01T14:46:51.276Z,101685.75
2023-05-01T14:49:22.753Z,101686.16
2023-05-01T14:51:49.471Z,101692.06
2023-05-01T14:54:16.592Z,101683.09
2023-05-01T14:56:43.948Z,101683.88
2023-05-01T14:59:10.635Z,101687.53
2023-05-01T15:01:37.366Z,101688.31
2023-05-01T15:04:06.472Z,101682.00
2023-05-01T15:06:36.662Z,101688.25
2023-05-01T15:09:04.689Z,101685.09
2023-05-01T15:11:31.434Z,101685.50
2023-05-01T15:13:57.891Z,101693.78
2023-05-01T15:16:24.386Z,101693.81
2023-05-01T15:18:51.037Z,101691.88
2023-05-01T15:21:18.223Z,101692.56
2023-05-01T15:23:46.127Z,101686.91
2023-05-01T15:26:12.623Z,101692.13
2023-05-01T15:28:39.120Z,101701.06
2023-05-01T15:31:05.996Z,101698.63
2023-05-01T15:33:32.709Z,101693.34
2023-05-01T15:35:59.214Z,101700.16
2023-05-01T15:38:26.233Z,101702.78
2023-05-01T15:40:53.679Z,101703.09
2023-05-01T15:43:21.837Z,101704.72
2023-05-01T15:45:48.382Z,101706.91
2023-05-01T15:48:14.908Z,101696.44
2023-05-01T15:50:41.409Z,101711.81
2023-05-01T15:53:08.561Z,101717.19
2023-05-01T15:55:35.035Z,101721.44
2023-05-01T15:58:02.746Z,101712.53
2023-05-01T16:00:29.465Z,101711.69
2023-05-01T16:02:56.058Z,101718.19
2023-05-01T16:05:22.828Z,101728.72
2023-05-01T16:08:00.641Z,101729.66
2023-05-01T16:10:27.657Z,101733.28
2023-05-01T16:12:54.292Z,101732.75
2023-05-01T16:15:22.096Z,101733.03
2023-05-01T16:17:49.799Z,101739.53
2023-05-01T16:20:17.186Z,101732.81
2023-05-01T16:22:43.714Z,101726.41
2023-05-01T16:25:10.751Z,101740.69
2023-05-01T16:27:45.878Z,101739.19
2023-05-01T16:30:16.717Z,101743.50
2023-05-01T16:32:44.702Z,101743.22
2023-05-01T16:35:16.838Z,101743.75
2023-05-01T16:37:43.385Z,101749.56
2023-05-01T16:40:16.317Z,101751.75
2023-05-01T16:42:42.945Z,101758.00
2023-05-01T16:45:09.856Z,101758.34
2023-05-01T16:47:36.395Z,101763.81
2023-05-01T16:50:03.524Z,101769.19
2023-05-01T16:52:30.397Z,101771.44
2023-05-01T16:54:56.876Z,101785.97
2023-05-01T16:57:23.410Z,101775.56
2023-05-01T16:59:50.205Z,101779.19
2023-05-01T17:02:16.869Z,101779.34
2023-05-01T17:04:43.721Z,101783.03
2023-05-01T17:07:10.470Z,101774.50
2023-05-01T17:09:37.000Z,101770.81
2023-05-01T17:12:03.695Z,101780.13
2023-05-01T17:14:30.986Z,101786.84
2023-05-01T17:17:00.394Z,101785.13
2023-05-01T17:19:26.862Z,101796.19
2023-05-01T17:21:53.631Z,101786.81
2023-05-01T17:24:20.094Z,101793.47
2023-05-01T17:26:46.736Z,101788.78
2023-05-01T17:29:13.332Z,101788.13
2023-05-01T17:31:39.826Z,101786.22
2023-05-01T17:34:06.371Z,101795.47
2023-05-01T17:36:32.937Z,101801.81
2023-05-01T17:39:01.371Z,101796.72
2023-05-01T17:41:27.947Z,101798.91
2023-05-01T17:43:55.215Z,101800.63
2023-05-01T17:46:21.903Z,101807.66
2023-05-01T17:48:51.310Z,101810.09
2023-05-01T17:51:18.155Z,101813.00
2023-05-01T17:53:44.632Z,101808.03
2023-05-01T17:56:11.327Z,101805.47
2023-05-01T17:58:37.787Z,101812.22
2023-05-01T18:01:04.661Z,101812.22
2023-05-01T18:03:32.807Z,101815.72
2023-05-01T18:06:00.594Z,101820.34
2023-05-01T18:08:27.146Z,101817.78
2023-05-01T18:10:53.789Z,101825.16
2023-05-01T18:13:21.668Z,101828.31
2023-05-01T18:15:51.768Z,101830.47
2023-05-01T18:18:18.524Z,101839.91
2023-05-01T18:20:45.183Z,101837.09
2023-05-01T18:23:11.623Z,101838.75
2023-05-01T18:25:39.289Z,101846.38
2023-05-01T18:28:06.531Z,101849.09
2023-05-01T18:30:33.207Z,101858.50
2023-05-01T18:32:59.802Z,101860.88
2023-05-01T18:35:26.454Z,101857.72
2023-05-01T18:37:53.958Z,101858.66
2023-05-01T18:40:20.622Z,101865.16
2023-05-01T18:42:47.382Z,101865.50
2023-05-01T18:45:14.268Z,101860.47
2023-05-01T18:47:40.959Z,101869.66
2023-05-01T18:50:08.329Z,101874.34
2023-05-01T18:52:37.010Z,101883.66
2023-05-01T18:55:03.735Z,101878.88
2023-05-01T18:57:31.685Z,101879.28
2023-05-01T18:59:58.534Z,101884.13
2023-05-01T19:02:25.165Z,101886.13
2023-05-01T19:04:57.396Z,101889.31
2023-05-01T19:07:26.167Z,101891.16
2023-05-01T19:09:52.791Z,101897.66
2023-05-01T19:12:19.318Z,101895.06
2023-05-01T19:14:45.915Z,101901.47
2023-05-01T19:17:12.400Z,101909.56
2023-05-01T19:19:38.875Z,101905.13
2023-05-01T19:22:06.235Z,101908.94
2023-05-01T19:24:32.829Z,101905.94
2023-05-01T19:26:59.279Z,101901.88
2023-05-01T19:29:25.973Z,101913.16
2023-05-01T19:31:52.508Z,101915.50
2023-05-01T19:34:20.087Z,101919.50
2023-05-01T19:36:46.582Z,101928.56
2023-05-01T19:39:13.151Z,101935.03
2023-05-01T19:41:39.707Z,101924.59
2023-05-01T19:44:06.683Z,101927.66
2023-05-01T19:46:33.252Z,101929.00
2023-05-01T19:48:59.771Z,101935.59
2023-05-01T19:51:26.519Z,101937.09
2023-05-01T19:53:53.120Z,101949.75
2023-05-01T19:56:19.561Z,101948.63
2023-05-01T19:58:46.410Z,101940.94
2023-05-01T20:01:13.200Z,101957.97
2023-05-01T20:03:39.871Z,101959.19
2023-05-01T20:06:07.401Z,101963.75
2023-05-01T20:08:34.018Z,101969.28
2023-05-01T20:11:01.546Z,101972.31
2023-05-01T20:13:28.120Z,101971.84
2023-05-01T20:15:54.720Z,101974.69
2023-05-01T20:18:22.132Z,101980.09
2023-05-01T20:20:48.753Z,101978.41
2023-05-01T20:23:16.756Z,101983.34
2023-05-01T20:25:43.866Z,101991.97
2023-05-01T20:28:11.424Z,101990.06
2023-05-01T20:30:43.467Z,101987.31
2023-05-01T20:33:10.284Z,101983.91
2023-05-01T20:35:37.247Z,101993.22
2023-05-01T20:38:04.484Z,101998.53
2023-05-01T20:40:31.965Z,102003.88
2023-05-01T20:43:01.996Z,102005.47
2023-05-01T20:45:31.706Z,102000.53
2023-05-01T20:47:58.827Z,102006.53
2023-05-01T20:50:26.420Z,102008.97
2023-05-01T20:52:54.021Z,102012.31
2023-05-01T20:55:21.098Z,102024.84
2023-05-01T20:57:47.744Z,102021.88
2023-05-01T21:00:14.736Z,102019.03
2023-05-01T21:02:41.500Z,102012.00
2023-05-01T21:05:10.304Z,102019.69
2023-05-01T21:07:38.201Z,102013.59
2023-05-01T21:10:11.726Z,102013.88
2023-05-01T21:12:38.280Z,102019.00
2023-05-01T21:15:05.475Z,102029.22
2023-05-01T21:17:36.779Z,102036.28
2023-05-01T21:20:10.928Z,102029.03
2023-05-01T21:22:40.587Z,102034.13
2023-05-01T21:25:08.745Z,102042.22
2023-05-01T21:27:39.652Z,102034.59
2023-05-01T21:30:07.052Z,102042.66
2023-05-01T21:32:39.827Z,102031.25
2023-05-01T21:35:07.752Z,102032.03
2023-05-01T21:37:34.251Z,102032.13
2023-05-01T21:40:01.594Z,102039.16
2023-05-01T21:42:35.591Z,102039.72
2023-05-01T21:45:10.191Z,102038.97
2023-05-01T21:47:42.802Z,102037.91
2023-05-01T21:50:14.431Z,102043.22
2023-05-01T21:52:42.264Z,102039.81
2023-05-01T21:55:10.529Z,102050.28
2023-05-01T21:57:39.291Z,102052.09
2023-05-01T22:00:11.199Z,102043.16
2023-05-01T22:02:43.673Z,102046.66
2023-05-01T22:05:12.846Z,102053.69
2023-05-01T22:07:40.800Z,102056.53
2023-05-01T22:10:09.530Z,102057.47
2023-05-01T22:12:36.056Z,102053.88
2023-05-01T22:15:02.955Z,102039.81
2023-05-01T22:17:29.836Z,102044.47
2023-05-01T22:19:56.520Z,102052.53
2023-05-01T22:22:22.989Z,102048.91
2023-05-01T22:24:49.476Z,102055.00
2023-05-01T22:27:16.054Z,102056.09
2023-05-01T22:29:43.121Z,102055.19
2023-05-01T22:32:09.806Z,102062.31
2023-05-01T22:34:36.467Z,102064.09
2023-05-01T22:37:03.036Z,102066.59
2023-05-01T22:39:29.875Z,102073.59
2023-05-01T22:41:58.151Z,102077.38
2023-05-01T22:44:24.898Z,102084.41
2023-05-01T22:46:51.658Z,102088.88
2023-05-01T22:49:18.757Z,102094.47
2023-05-01T22:51:45.637Z,102103.38
2023-05-01T22:54:12.197Z,102097.28
2023-05-01T22:56:38.694Z,102107.41
2023-05-01T22:59:05.239Z,102112.03
2023-05-01T23:01:31.692Z,102108.59
2023-05-01T23:03:58.347Z,102106.47
2023-05-01T23:06:25.010Z,102106.97
2023-05-01T23:08:55.094Z,102110.28
2023-05-01T23:11:22.842Z,102110.63
2023-05-01T23:13:50.066Z,102120.47
2023-05-01T23:16:17.679Z,102118.72
2023-05-01T23:18:45.220Z,102131.69
2023-05-01T23:21:13.397Z,102133.22
2023-05-01T23:23:44.741Z,102128.50
2023-05-01T23:26:19.336Z,102123.38
2023-05-01T23:28:46.308Z,102141.66
2023-05-01T23:31:18.822Z,102133.81
2023-05-01T23:33:45.396Z,102145.88
2023-05-01T23:36:13.037Z,102144.91
2023-05-01T23:38:40.432Z,102146.97
2023-05-01T23:41:07.985Z,102147.47
2023-05-01T23:43:38.587Z,102157.44
2023-05-01T23:46:07.451Z,102162.84
2023-05-01T23:48:34.765Z,102161.84
2023-05-01T23:51:02.715Z,102156.34
2023-05-01T23:53:29.407Z,102154.66
2023-05-01T23:55:56.370Z,102160.13
2023-05-01T23:58:23.487Z,102153.09
